createdAt,value
2023-01-31T00:05:00.671Z,7.80
2023-01-31T00:10:04.202Z,7.90
2023-01-31T00:15:06.585Z,7.90
2023-01-31T00:20:09.527Z,7.70
2023-01-31T00:25:11.582Z,7.60
2023-01-31T00:30:13.695Z,7.70
2023-01-31T00:35:15.710Z,7.70
2023-01-31T00:40:20.337Z,7.80
2023-01-31T00:45:22.491Z,7.70
2023-01-31T00:50:28.767Z,7.70
2023-01-31T00:55:30.980Z,7.70
2023-01-31T01:00:33.533Z,7.60
2023-01-31T01:05:35.961Z,7.60
2023-01-31T01:10:38.164Z,7.60
2023-01-31T01:15:40.245Z,7.70
2023-01-31T01:20:44.085Z,7.70
2023-01-31T01:25:46.202Z,7.70
2023-01-31T01:30:48.228Z,7.60
2023-01-31T01:35:50.347Z,7.50
2023-01-31T01:40:52.359Z,7.50
2023-01-31T01:45:54.400Z,7.50
2023-01-31T01:50:58.032Z,7.60
2023-01-31T01:56:26.796Z,7.50
2023-01-31T02:01:33.487Z,7.40
2023-01-31T02:06:36.032Z,7.40
2023-01-31T02:11:38.118Z,7.40
2023-01-31T02:16:40.284Z,7.50
2023-01-31T02:22:14.260Z,7.50
2023-01-31T02:27:38.275Z,7.50
2023-01-31T02:32:58.673Z,7.40
2023-01-31T02:38:41.358Z,7.40
2023-01-31T02:44:29.315Z,7.40
2023-01-31T02:49:39.670Z,7.40
2023-01-31T02:55:20.022Z,7.50
2023-01-31T03:00:24.244Z,7.50
2023-01-31T03:05:26.670Z,7.50
2023-01-31T03:11:08.336Z,7.50
2023-01-31T03:16:45.306Z,7.40
2023-01-31T03:21:57.687Z,7.40
2023-01-31T03:27:02.754Z,7.30
2023-01-31T03:32:12.640Z,7.30
2023-01-31T03:37:36.151Z,7.40
2023-01-31T03:43:01.751Z,7.40
2023-01-31T03:48:10.194Z,7.40
2023-01-31T03:53:29.382Z,7.40
2023-01-31T03:58:38.462Z,7.40
2023-01-31T04:03:46.062Z,7.50
2023-01-31T04:08:49.324Z,7.50
2023-01-31T04:13:51.498Z,7.50
2023-01-31T04:18:53.629Z,7.50
2023-01-31T04:23:55.939Z,7.50
2023-01-31T04:28:57.995Z,7.50
2023-01-31T04:34:00.106Z,7.50
2023-01-31T04:39:02.312Z,7.50
2023-01-31T04:44:04.495Z,7.50
2023-01-31T04:49:06.766Z,7.40
2023-01-31T04:54:09.341Z,7.50
2023-01-31T04:59:11.454Z,7.40
2023-01-31T05:04:13.574Z,7.40
2023-01-31T05:09:15.676Z,7.40
2023-01-31T05:14:18.560Z,7.40
2023-01-31T05:19:20.641Z,7.40
2023-01-31T05:24:23.350Z,7.40
2023-01-31T05:29:26.910Z,7.40
2023-01-31T05:34:32.809Z,7.30
2023-01-31T05:39:35.929Z,7.30
2023-01-31T05:44:38.087Z,7.10
2023-01-31T05:49:40.471Z,7.00
2023-01-31T05:54:42.547Z,7.00
2023-01-31T05:59:44.841Z,6.90
2023-01-31T06:04:47.286Z,6.90
2023-01-31T06:09:49.410Z,6.80
2023-01-31T06:14:51.553Z,6.80
2023-01-31T06:19:53.614Z,6.90
2023-01-31T06:24:55.754Z,6.90
2023-01-31T06:29:58.022Z,6.90
2023-01-31T06:35:00.159Z,6.90
2023-01-31T06:40:02.232Z,7.00
2023-01-31T06:45:04.605Z,7.00
2023-01-31T06:50:07.031Z,7.00
2023-01-31T06:55:09.407Z,7.00
2023-01-31T07:00:12.080Z,7.10
2023-01-31T07:05:15.311Z,7.10
2023-01-31T07:10:18.202Z,7.00
2023-01-31T07:15:20.652Z,7.10
2023-01-31T07:20:23.399Z,7.00
2023-01-31T07:25:26.705Z,7.00
2023-01-31T07:30:29.730Z,6.90
2023-01-31T07:35:32.310Z,6.90
2023-01-31T07:40:34.425Z,6.80
2023-01-31T07:45:36.752Z,6.70
2023-01-31T07:50:39.105Z,6.70
2023-01-31T07:55:41.174Z,6.70
2023-01-31T08:01:01.988Z,6.60
2023-01-31T08:06:09.345Z,6.60
2023-01-31T08:11:11.983Z,6.60
2023-01-31T08:16:14.431Z,6.60
2023-01-31T08:21:17.048Z,6.60
2023-01-31T08:26:21.368Z,6.50
2023-01-31T08:31:25.640Z,6.50
2023-01-31T08:36:34.310Z,6.50
2023-01-31T08:41:37.390Z,6.50
2023-01-31T08:46:39.594Z,6.40
2023-01-31T08:51:41.919Z,6.30
2023-01-31T08:56:44.069Z,6.30
2023-01-31T09:01:46.868Z,6.40
2023-01-31T09:06:49.822Z,6.40
2023-01-31T09:11:51.967Z,6.50
2023-01-31T09:16:54.164Z,6.70
2023-01-31T09:21:56.550Z,6.90
2023-01-31T09:26:58.765Z,7.20
2023-01-31T09:32:01.168Z,7.50
2023-01-31T09:37:03.260Z,7.70
2023-01-31T09:42:24.596Z,7.80
2023-01-31T09:47:31.006Z,7.90
2023-01-31T09:52:33.962Z,8.00
2023-01-31T09:57:48.341Z,8.10
2023-01-31T10:02:59.567Z,8.30
2023-01-31T10:08:39.751Z,8.40
2023-01-31T10:13:59.136Z,8.40
2023-01-31T10:19:33.106Z,8.40
2023-01-31T10:24:46.295Z,8.50
2023-01-31T10:29:52.633Z,8.60
2023-01-31T10:35:01.925Z,8.70
2023-01-31T10:40:13.927Z,8.80
2023-01-31T10:45:22.460Z,8.90
2023-01-31T10:50:38.517Z,8.90
2023-01-31T10:56:19.936Z,9.00
2023-01-31T11:01:22.180Z,9.00
2023-01-31T11:06:24.824Z,9.20
2023-01-31T11:11:29.369Z,9.40
2023-01-31T11:16:35.617Z,9.60
2023-01-31T11:21:39.993Z,9.80
2023-01-31T11:26:52.683Z,9.90
2023-01-31T11:31:57.387Z,10.00
2023-01-31T11:37:18.698Z,10.10
2023-01-31T11:42:20.805Z,10.40
2023-01-31T11:47:42.067Z,10.80
2023-01-31T11:52:44.183Z,11.30
2023-01-31T11:57:46.410Z,11.60
2023-01-31T12:02:54.110Z,11.50
2023-01-31T12:07:57.271Z,11.10
2023-01-31T12:13:16.650Z,10.80
2023-01-31T12:18:44.170Z,10.70
2023-01-31T12:23:55.006Z,10.60
2023-01-31T12:29:25.747Z,10.70
2023-01-31T12:35:00.774Z,10.70
2023-01-31T12:40:30.666Z,10.70
2023-01-31T12:46:07.195Z,10.70
2023-01-31T12:51:18.363Z,10.70
2023-01-31T12:56:29.176Z,10.80
2023-01-31T13:01:48.628Z,10.90
2023-01-31T13:06:55.058Z,11.00
2023-01-31T13:12:05.999Z,11.20
2023-01-31T13:17:13.767Z,11.10
2023-01-31T13:22:44.905Z,11.20
2023-01-31T13:28:27.445Z,11.50
2023-01-31T13:33:59.340Z,11.90
2023-01-31T13:39:09.731Z,12.10
2023-01-31T13:44:14.611Z,12.20
2023-01-31T13:49:28.751Z,12.30
2023-01-31T13:54:38.877Z,12.30
2023-01-31T13:59:41.083Z,12.20
2023-01-31T14:04:43.739Z,12.50
2023-01-31T14:09:52.316Z,12.90
2023-01-31T14:14:57.779Z,12.60
2023-01-31T14:20:07.419Z,13.00
2023-01-31T14:25:09.473Z,12.80
2023-01-31T14:30:21.935Z,12.30
2023-01-31T14:35:33.949Z,12.00
2023-01-31T14:40:48.239Z,12.00
2023-01-31T14:46:02.834Z,12.00
2023-01-31T14:51:20.794Z,12.00
2023-01-31T14:56:44.583Z,12.10
2023-01-31T15:01:47.371Z,12.00
2023-01-31T15:06:52.214Z,11.90
2023-01-31T15:11:56.111Z,11.70
2023-01-31T15:17:35.163Z,11.60
2023-01-31T15:22:41.589Z,11.50
2023-01-31T15:27:44.055Z,11.50
2023-01-31T15:33:12.768Z,11.40
2023-01-31T15:38:33.485Z,11.30
2023-01-31T15:43:38.886Z,11.20
2023-01-31T15:48:44.241Z,11.20
2023-01-31T15:53:47.744Z,11.30
2023-01-31T15:58:55.586Z,11.20
2023-01-31T16:03:59.197Z,11.10
2023-01-31T16:09:03.403Z,11.10
2023-01-31T16:14:07.862Z,11.10
2023-01-31T16:19:23.708Z,11.00
2023-01-31T16:24:26.201Z,10.90
2023-01-31T16:29:50.679Z,10.80
2023-01-31T16:35:01.423Z,10.70
2023-01-31T16:40:06.589Z,10.50
2023-01-31T16:45:33.859Z,10.40
2023-01-31T16:50:43.288Z,10.30
2023-01-31T16:55:46.137Z,10.20
2023-01-31T17:00:48.714Z,10.10
2023-01-31T17:05:50.827Z,10.00
2023-01-31T17:10:52.882Z,10.00
2023-01-31T17:15:54.957Z,9.90
2023-01-31T17:20:58.591Z,9.80
2023-01-31T17:26:00.603Z,9.80
2023-01-31T17:31:02.785Z,9.80
2023-01-31T17:36:10.092Z,9.80
2023-01-31T17:41:15.704Z,9.80
2023-01-31T17:46:18.903Z,9.80
2023-01-31T17:51:21.057Z,9.80
2023-01-31T17:56:23.552Z,9.70
2023-01-31T18:01:25.612Z,9.70
2023-01-31T18:06:27.662Z,9.70
2023-01-31T18:11:29.695Z,9.70
2023-01-31T18:16:31.864Z,9.70
2023-01-31T18:21:37.068Z,9.70
2023-01-31T18:26:41.153Z,9.70
2023-01-31T18:31:43.245Z,9.60
2023-01-31T18:36:45.549Z,9.60
2023-01-31T18:41:47.613Z,9.60
2023-01-31T18:46:49.784Z,9.60
2023-01-31T18:51:51.881Z,9.50
2023-01-31T18:56:53.997Z,9.50
2023-01-31T19:01:56.057Z,9.50
2023-01-31T19:06:58.343Z,9.50
2023-01-31T19:12:00.414Z,9.40
2023-01-31T19:17:02.555Z,9.40
2023-01-31T19:22:04.569Z,9.30
2023-01-31T19:27:06.568Z,9.30
2023-01-31T19:32:08.676Z,9.30
2023-01-31T19:37:10.720Z,9.20
2023-01-31T19:42:13.095Z,9.10
2023-01-31T19:47:15.081Z,9.20
2023-01-31T19:52:17.137Z,9.10
2023-01-31T19:57:19.318Z,9.10
2023-01-31T20:02:21.445Z,9.10
2023-01-31T20:07:23.514Z,9.10
2023-01-31T20:12:25.852Z,9.10
2023-01-31T20:17:28.123Z,8.90
2023-01-31T20:22:30.280Z,9.00
2023-01-31T20:27:35.449Z,8.90
2023-01-31T20:32:37.497Z,8.90
2023-01-31T20:37:40.382Z,8.90
2023-01-31T20:42:42.438Z,8.90
2023-01-31T20:47:44.514Z,8.80
2023-01-31T20:52:46.543Z,8.80
2023-01-31T20:57:50.257Z,8.80
2023-01-31T21:02:52.430Z,8.80
2023-01-31T21:07:54.579Z,8.80
2023-01-31T21:12:56.651Z,8.90
2023-01-31T21:17:58.707Z,8.90
2023-01-31T21:23:00.752Z,8.90
2023-01-31T21:28:03.085Z,8.80
2023-01-31T21:33:05.216Z,8.80
2023-01-31T21:38:07.235Z,8.90
2023-01-31T21:43:09.393Z,8.80
2023-01-31T21:48:29.949Z,8.80
2023-01-31T21:53:32.145Z,8.80
2023-01-31T21:58:35.125Z,8.70
2023-01-31T22:03:38.877Z,8.80
2023-01-31T22:08:41.545Z,8.80
2023-01-31T22:13:45.672Z,8.80
2023-01-31T22:18:48.603Z,8.90
2023-01-31T22:23:53.199Z,8.90
2023-01-31T22:28:57.439Z,8.90
2023-01-31T22:34:00.292Z,9.00
2023-01-31T22:39:02.424Z,9.00
2023-01-31T22:44:04.604Z,9.00
2023-01-31T22:49:06.666Z,9.00
2023-01-31T22:54:08.659Z,9.00
2023-01-31T22:59:10.765Z,8.90
2023-01-31T23:04:14.174Z,8.90
2023-01-31T23:09:16.249Z,8.90
2023-01-31T23:14:18.717Z,8.90
2023-01-31T23:19:21.058Z,8.90
2023-01-31T23:24:23.186Z,8.90
2023-01-31T23:29:25.369Z,8.90
2023-01-31T23:34:27.331Z,8.90
2023-01-31T23:39:29.460Z,8.90
2023-01-31T23:44:31.523Z,8.90
2023-01-31T23:49:33.670Z,8.80
2023-01-31T23:54:36.264Z,8.80
2023-01-31T23:59:38.408Z,8.80
